Time;durP1;ratioP1;P1;durP2;ratioP2;P2;SDS_P1;SDS_P2;PMS_P1;PMS_P2;Temp;Humidity;BMP_temperature;BMP_pressure;BME280_temperature;BME280_humidity;BME280_pressure;Samples;Min_cycle;Max_cycle;Signal;HPM_P1;HPM_P2
2022/05/18 00:00:27;;;;;;;1.20;0.77;;;;;;;;;;5106364;28;20067;-73
2022/05/18 00:03:04;;;;;;;2.10;0.70;;;;;;;;;;5107149;28;20047;-75
2022/05/18 00:05:37;;;;;;;1.17;0.70;;;;;;;;;;5107230;28;20059;-73
2022/05/18 00:08:08;;;;;;;1.17;0.60;;;;;;;;;;5110405;27;20490;-72
2022/05/18 00:10:41;;;;;;;0.25;0.25;;;;;;;;;;5115420;27;20405;-73
2022/05/18 00:13:12;;;;;;;0.55;0.35;;;;;;;;;;5111309;27;20052;-72
2022/05/18 00:15:44;;;;;;;1.42;0.40;;;;;;;;;;5107169;28;20058;-72
2022/05/18 00:18:15;;;;;;;1.33;0.80;;;;;;;;;;5106911;28;20051;-73
2022/05/18 00:20:45;;;;;;;0.43;0.40;;;;;;;;;;5106245;28;20059;-74
2022/05/18 00:23:15;;;;;;;0.73;0.60;;;;;;;;;;5105174;28;20052;-73
2022/05/18 00:25:45;;;;;;;4.03;0.63;;;;;;;;;;5106883;28;20044;-72
2022/05/18 00:28:15;;;;;;;1.08;0.60;;;;;;;;;;5106787;28;20043;-73
2022/05/18 00:30:45;;;;;;;0.88;0.60;;;;;;;;;;5106919;28;20055;-73
2022/05/18 00:33:15;;;;;;;1.35;0.65;;;;;;;;;;5106394;28;20509;-74
2022/05/18 00:35:45;;;;;;;0.80;0.50;;;;;;;;;;5106023;28;20043;-73
2022/05/18 00:38:16;;;;;;;0.93;0.65;;;;;;;;;;5106851;28;20510;-74
2022/05/18 00:40:49;;;;;;;1.45;0.93;;;;;;;;;;5106113;28;20379;-74
2022/05/18 00:43:41;;;;;;;1.15;0.73;;;;;;;;;;5107223;28;20059;-73
2022/05/18 00:46:15;;;;;;;0.57;0.40;;;;;;;;;;5106366;28;20055;-74
2022/05/18 00:48:53;;;;;;;1.35;0.73;;;;;;;;;;5107287;28;20510;-74
2022/05/18 00:51:33;;;;;;;1.65;0.52;;;;;;;;;;5107200;28;20047;-74
2022/05/18 00:54:13;;;;;;;0.98;0.55;;;;;;;;;;5106720;28;20051;-74
2022/05/18 00:57:13;;;;;;;1.77;0.77;;;;;;;;;;5107280;28;20172;-74
2022/05/18 00:59:53;;;;;;;0.30;0.30;;;;;;;;;;5106827;28;20301;-74
2022/05/18 01:02:28;;;;;;;1.58;1.20;;;;;;;;;;5104986;28;20051;-74
2022/05/18 01:05:03;;;;;;;2.78;0.65;;;;;;;;;;5106712;28;20043;-74
2022/05/18 01:07:43;;;;;;;0.80;0.60;;;;;;;;;;5106513;28;20047;-73
2022/05/18 01:10:14;;;;;;;0.45;0.45;;;;;;;;;;5106179;28;20047;-74
2022/05/18 01:12:45;;;;;;;1.35;0.47;;;;;;;;;;5109197;28;20051;-74
2022/05/18 01:15:18;;;;;;;0.68;0.50;;;;;;;;;;5110658;28;20048;-74
2022/05/18 01:17:53;;;;;;;1.10;0.60;;;;;;;;;;5111099;28;20054;-75
2022/05/18 01:20:28;;;;;;;0.70;0.50;;;;;;;;;;5110555;28;20081;-74
2022/05/18 01:23:04;;;;;;;0.28;0.28;;;;;;;;;;5111386;28;20050;-73
2022/05/18 01:25:52;;;;;;;1.23;0.68;;;;;;;;;;5110357;28;20036;-75
2022/05/18 01:28:26;;;;;;;1.00;0.65;;;;;;;;;;5109279;28;20067;-75
2022/05/18 01:30:57;;;;;;;0.35;0.30;;;;;;;;;;5108593;28;20058;-74
2022/05/18 01:33:27;;;;;;;0.55;0.43;;;;;;;;;;5110368;28;20525;-74
2022/05/18 01:35:57;;;;;;;0.82;0.60;;;;;;;;;;5110584;28;20051;-75
2022/05/18 01:38:27;;;;;;;0.70;0.40;;;;;;;;;;5110720;28;20046;-74
2022/05/18 01:41:20;;;;;;;0.50;0.40;;;;;;;;;;5110530;28;20063;-75
2022/05/18 01:43:54;;;;;;;1.45;0.35;;;;;;;;;;5108828;28;20051;-76
2022/05/18 01:46:24;;;;;;;3.42;0.50;;;;;;;;;;5110289;28;20051;-74
2022/05/18 01:48:54;;;;;;;1.17;0.93;;;;;;;;;;5110077;28;20415;-75
2022/05/18 01:51:43;;;;;;;0.35;0.30;;;;;;;;;;5109724;28;20413;-74
2022/05/18 01:54:13;;;;;;;0.85;0.40;;;;;;;;;;5109325;28;20055;-75
2022/05/18 01:56:44;;;;;;;0.28;0.28;;;;;;;;;;5109358;28;20048;-74
2022/05/18 01:59:14;;;;;;;1.20;0.30;;;;;;;;;;5109918;28;20043;-75
2022/05/18 02:01:44;;;;;;;0.63;0.30;;;;;;;;;;5109779;28;20715;-74
2022/05/18 02:04:15;;;;;;;0.40;0.40;;;;;;;;;;5109700;28;20054;-74
2022/05/18 02:06:44;;;;;;;0.70;0.40;;;;;;;;;;5109629;28;20048;-74
2022/05/18 02:09:16;;;;;;;1.58;0.30;;;;;;;;;;5109692;28;20114;-76
2022/05/18 02:11:47;;;;;;;0.73;0.40;;;;;;;;;;5108702;28;20047;-75
2022/05/18 02:14:17;;;;;;;0.40;0.40;;;;;;;;;;5109906;28;20462;-74
2022/05/18 02:16:47;;;;;;;0.77;0.40;;;;;;;;;;5106098;28;20518;-75
2022/05/18 02:19:17;;;;;;;0.30;0.30;;;;;;;;;;5106092;28;20047;-75
2022/05/18 02:21:47;;;;;;;0.70;0.40;;;;;;;;;;5105295;28;20048;-76
2022/05/18 02:24:18;;;;;;;0.50;0.50;;;;;;;;;;5107644;28;20039;-75
2022/05/18 02:26:49;;;;;;;0.30;0.30;;;;;;;;;;5107045;28;20058;-74
2022/05/18 02:29:20;;;;;;;0.45;0.35;;;;;;;;;;5109266;28;20047;-76
2022/05/18 02:31:51;;;;;;;0.50;0.50;;;;;;;;;;5109136;28;20047;-77
2022/05/18 02:34:21;;;;;;;0.45;0.43;;;;;;;;;;5108917;28;20533;-74
2022/05/18 02:36:51;;;;;;;0.45;0.38;;;;;;;;;;5109685;28;20043;-75
2022/05/18 02:39:21;;;;;;;0.40;0.30;;;;;;;;;;5108848;28;20047;-74
2022/05/18 02:41:51;;;;;;;0.90;0.40;;;;;;;;;;5109116;28;20058;-75
2022/05/18 02:44:21;;;;;;;0.40;0.30;;;;;;;;;;5109027;28;20043;-74
2022/05/18 02:46:55;;;;;;;0.57;0.43;;;;;;;;;;5108897;28;20047;-75
2022/05/18 02:49:25;;;;;;;0.55;0.40;;;;;;;;;;5108538;28;20047;-75
2022/05/18 02:51:56;;;;;;;0.20;0.20;;;;;;;;;;5089993;28;20501;-75
2022/05/18 02:57:14;;;;;;;0.30;0.30;;;;;;;;;;5107793;28;20044;-76
2022/05/18 02:59:44;;;;;;;3.67;0.40;;;;;;;;;;5108962;28;20040;-75
2022/05/18 03:02:14;;;;;;;0.30;0.30;;;;;;;;;;5108938;28;20055;-74
2022/05/18 03:04:44;;;;;;;0.40;0.30;;;;;;;;;;5108951;28;20422;-74
2022/05/18 03:07:14;;;;;;;0.30;0.30;;;;;;;;;;5108220;28;20055;-75
2022/05/18 03:09:44;;;;;;;0.20;0.20;;;;;;;;;;5108341;28;20058;-75
2022/05/18 03:12:13;;;;;;;0.45;0.38;;;;;;;;;;5107632;28;20051;-76
2022/05/18 03:14:43;;;;;;;0.30;0.30;;;;;;;;;;5106220;28;20066;-75
2022/05/18 03:17:15;;;;;;;0.32;0.30;;;;;;;;;;5108070;28;20044;-76
2022/05/18 03:19:45;;;;;;;0.57;0.40;;;;;;;;;;5107532;28;20046;-77
2022/05/18 03:25:05;;;;;;;0.93;0.40;;;;;;;;;;5108328;28;20051;-76
2022/05/18 03:27:41;;;;;;;0.25;0.20;;;;;;;;;;5107233;28;20040;-77
2022/05/18 03:30:13;;;;;;;0.88;0.47;;;;;;;;;;5107923;28;20039;-76
2022/05/18 03:32:44;;;;;;;0.20;0.20;;;;;;;;;;5106804;28;20415;-76
2022/05/18 03:35:14;;;;;;;0.50;0.40;;;;;;;;;;5106867;28;20061;-77
2022/05/18 03:37:43;;;;;;;2.15;0.40;;;;;;;;;;5109300;28;20277;-76
2022/05/18 03:40:13;;;;;;;0.30;0.30;;;;;;;;;;5106276;28;20056;-74
2022/05/18 03:42:44;;;;;;;0.70;0.32;;;;;;;;;;5107364;28;20164;-75
2022/05/18 03:45:14;;;;;;;0.30;0.30;;;;;;;;;;5106349;28;20055;-75
2022/05/18 03:47:44;;;;;;;1.17;0.30;;;;;;;;;;5107789;28;20051;-74
2022/05/18 03:50:14;;;;;;;0.32;0.32;;;;;;;;;;5108186;28;20062;-77
2022/05/18 03:52:44;;;;;;;0.50;0.50;;;;;;;;;;5107826;28;20055;-76
2022/05/18 03:55:14;;;;;;;0.20;0.20;;;;;;;;;;5107140;28;20620;-77
2022/05/18 03:57:44;;;;;;;0.43;0.40;;;;;;;;;;5106996;28;20048;-77
2022/05/18 04:00:15;;;;;;;0.20;0.20;;;;;;;;;;5107061;28;20414;-76
2022/05/18 04:02:49;;;;;;;0.52;0.25;;;;;;;;;;5107606;28;20039;-76
2022/05/18 04:05:20;;;;;;;0.30;0.30;;;;;;;;;;5107613;28;20050;-77
2022/05/18 04:07:51;;;;;;;2.25;0.30;;;;;;;;;;5106662;28;20498;-77
2022/05/18 04:10:22;;;;;;;0.08;0.08;;;;;;;;;;5105570;28;20490;-76
2022/05/18 04:12:52;;;;;;;0.63;0.20;;;;;;;;;;5107704;28;20044;-76
2022/05/18 04:15:22;;;;;;;0.30;0.20;;;;;;;;;;5107112;28;20521;-76
2022/05/18 04:17:55;;;;;;;0.30;0.20;;;;;;;;;;5105979;28;20529;-77
2022/05/18 04:20:26;;;;;;;0.30;0.20;;;;;;;;;;5106316;28;20040;-76
2022/05/18 04:22:56;;;;;;;0.10;0.10;;;;;;;;;;5107166;28;20529;-75
2022/05/18 04:25:28;;;;;;;0.95;0.20;;;;;;;;;;5106153;28;20498;-74
2022/05/18 04:27:58;;;;;;;0.50;0.10;;;;;;;;;;5106508;28;20043;-75
2022/05/18 04:30:28;;;;;;;1.17;0.30;;;;;;;;;;5106937;28;20035;-77
2022/05/18 04:32:58;;;;;;;0.38;0.20;;;;;;;;;;5105025;28;20058;-75
2022/05/18 04:35:30;;;;;;;1.85;0.20;;;;;;;;;;5106457;28;20046;-78
2022/05/18 04:38:00;;;;;;;0.63;0.40;;;;;;;;;;5106561;28;20533;-75
2022/05/18 04:40:30;;;;;;;0.10;0.10;;;;;;;;;;5106131;28;20077;-75
2022/05/18 04:43:00;;;;;;;0.30;0.20;;;;;;;;;;5106733;28;20051;-75
2022/05/18 04:45:30;;;;;;;1.02;0.30;;;;;;;;;;5106953;28;20040;-75
2022/05/18 04:47:59;;;;;;;0.00;0.00;;;;;;;;;;5106302;28;20051;-76
2022/05/18 04:50:30;;;;;;;2.25;0.35;;;;;;;;;;5106901;28;20521;-76
2022/05/18 04:53:00;;;;;;;1.10;0.30;;;;;;;;;;5105437;28;20047;-76
2022/05/18 04:55:30;;;;;;;0.40;0.30;;;;;;;;;;5107411;28;20509;-76
2022/05/18 04:58:01;;;;;;;1.23;0.50;;;;;;;;;;5106672;28;20055;-77
2022/05/18 05:00:31;;;;;;;;;;;;;;;;;;5106435;28;20399;-76
2022/05/18 05:03:01;;;;;;;1.55;0.40;;;;;;;;;;5107961;28;19923;-76
2022/05/18 05:18:29;;;;;;;1.35;0.43;;;;;;;;;;5124028;27;20819;-77
2022/05/18 05:21:00;;;;;;;0.15;0.10;;;;;;;;;;5122705;28;20047;-76
2022/05/18 05:23:30;;;;;;;0.20;0.10;;;;;;;;;;5124329;28;20047;-76
2022/05/18 05:26:00;;;;;;;1.17;0.30;;;;;;;;;;5123965;28;20047;-77
2022/05/18 05:28:30;;;;;;;2.47;0.50;;;;;;;;;;5124069;28;20394;-77
2022/05/18 05:31:05;;;;;;;2.47;0.40;;;;;;;;;;5121905;28;20051;-77
2022/05/18 05:33:37;;;;;;;1.55;0.32;;;;;;;;;;5123597;28;20604;-77
2022/05/18 05:36:09;;;;;;;0.73;0.30;;;;;;;;;;5122134;28;20053;-77
2022/05/18 05:38:39;;;;;;;0.57;0.20;;;;;;;;;;5123634;28;20047;-77
2022/05/18 05:41:09;;;;;;;0.85;0.35;;;;;;;;;;5123653;28;20059;-76
2022/05/18 05:43:41;;;;;;;3.15;0.50;;;;;;;;;;5123937;28;20055;-76
2022/05/18 05:46:16;;;;;;;2.83;0.22;;;;;;;;;;5121898;28;20429;-76
2022/05/18 05:48:46;;;;;;;1.20;0.20;;;;;;;;;;5122257;28;20054;-77
2022/05/18 05:51:18;;;;;;;0.90;0.43;;;;;;;;;;5124890;28;20043;-77
2022/05/18 05:53:50;;;;;;;1.88;0.40;;;;;;;;;;5134252;28;20054;-76
2022/05/18 05:56:21;;;;;;;;;;;;;;;;;;5144810;28;20039;-75
2022/05/18 05:58:50;;;;;;;0.55;0.25;;;;;;;;;;5137853;28;20423;-77
2022/05/18 06:01:20;;;;;;;2.70;0.50;;;;;;;;;;5132603;28;20054;-78
2022/05/18 06:03:50;;;;;;;0.65;0.30;;;;;;;;;;5149969;27;20394;-79
2022/05/18 06:06:21;;;;;;;3.80;0.73;;;;;;;;;;5149671;27;20031;-79
2022/05/18 06:08:50;;;;;;;1.27;0.20;;;;;;;;;;5149503;27;20035;-79
2022/05/18 06:11:20;;;;;;;1.23;0.30;;;;;;;;;;5147678;27;20032;-79
2022/05/18 06:13:50;;;;;;;1.50;0.47;;;;;;;;;;5145452;28;20048;-79
2022/05/18 06:16:20;;;;;;;4.60;0.43;;;;;;;;;;5122672;28;20067;-78
2022/05/18 06:18:50;;;;;;;2.00;0.40;;;;;;;;;;5113179;28;20060;-76
2022/05/18 06:21:19;;;;;;;3.17;0.82;;;;;;;;;;5108787;28;20056;-80
2022/05/18 06:23:49;;;;;;;0.75;0.50;;;;;;;;;;5109083;28;20051;-80
2022/05/18 06:26:19;;;;;;;0.60;0.25;;;;;;;;;;5109489;28;20222;-79
2022/05/18 06:28:51;;;;;;;2.67;0.60;;;;;;;;;;5110218;28;20039;-79
2022/05/18 06:31:21;;;;;;;4.05;0.50;;;;;;;;;;5108119;28;20043;-79
2022/05/18 06:33:50;;;;;;;2.20;0.68;;;;;;;;;;5108754;28;20040;-78
2022/05/18 06:36:20;;;;;;;4.00;0.68;;;;;;;;;;5109611;28;20040;-79
2022/05/18 06:38:50;;;;;;;9.38;0.95;;;;;;;;;;5107968;28;20047;-78
2022/05/18 06:41:23;;;;;;;2.05;0.50;;;;;;;;;;5107951;28;20062;-78
2022/05/18 06:43:56;;;;;;;3.25;0.70;;;;;;;;;;5108592;28;20074;-78
2022/05/18 06:46:28;;;;;;;5.35;1.15;;;;;;;;;;5108682;28;20042;-78
2022/05/18 06:48:59;;;;;;;2.75;0.77;;;;;;;;;;5108499;28;20050;-79
2022/05/18 06:51:31;;;;;;;3.53;0.52;;;;;;;;;;5108279;28;20049;-77
2022/05/18 06:54:02;;;;;;;4.43;0.60;;;;;;;;;;5107724;28;20052;-77
2022/05/18 06:56:36;;;;;;;2.30;0.68;;;;;;;;;;5090060;28;20048;-77
2022/05/18 06:59:07;;;;;;;1.80;0.70;;;;;;;;;;5107497;28;20047;-78
2022/05/18 07:01:39;;;;;;;2.65;0.50;;;;;;;;;;5107776;28;20052;-78
2022/05/18 07:14:48;;;;;;;5.07;0.90;;;;;;;;;;5124471;27;20464;-75
2022/05/18 07:17:21;;;;;;;2.60;0.65;;;;;;;;;;5124034;28;20054;-78
2022/05/18 07:20:12;;;;;;;4.22;1.10;;;;;;;;;;5122091;28;20417;-82
2022/05/18 07:22:46;;;;;;;6.93;1.27;;;;;;;;;;5124087;28;20058;-77
2022/05/18 07:25:15;;;;;;;3.47;0.98;;;;;;;;;;5124076;28;20042;-77
2022/05/18 07:27:45;;;;;;;4.30;0.90;;;;;;;;;;5123868;28;20390;-76
2022/05/18 07:30:36;;;;;;;5.90;0.80;;;;;;;;;;5122566;28;20043;-79
2022/05/18 07:33:06;;;;;;;1.38;0.85;;;;;;;;;;5124240;28;20040;-76
2022/05/18 07:35:37;;;;;;;4.40;0.77;;;;;;;;;;5124577;28;20051;-76
2022/05/18 07:38:07;;;;;;;2.00;0.80;;;;;;;;;;5124180;28;20485;-76
2022/05/18 07:40:58;;;;;;;3.72;0.60;;;;;;;;;;5124320;28;20044;-78
2022/05/18 07:43:28;;;;;;;2.75;0.82;;;;;;;;;;5123425;28;20039;-78
2022/05/18 07:45:58;;;;;;;7.72;0.85;;;;;;;;;;5122323;28;20035;-76
2022/05/18 07:48:28;;;;;;;5.47;0.75;;;;;;;;;;5123240;28;20047;-78
2022/05/18 07:50:59;;;;;;;3.10;0.77;;;;;;;;;;5123729;28;20062;-78
2022/05/18 07:53:29;;;;;;;5.10;0.73;;;;;;;;;;5123183;28;20047;-77
2022/05/18 07:55:59;;;;;;;5.57;0.88;;;;;;;;;;5123477;28;20051;-76
2022/05/18 07:58:29;;;;;;;4.63;0.73;;;;;;;;;;5123317;28;20051;-77
2022/05/18 08:00:59;;;;;;;9.00;1.05;;;;;;;;;;5124771;28;20043;-76
2022/05/18 08:03:28;;;;;;;2.88;0.70;;;;;;;;;;5123707;28;20050;-75
2022/05/18 08:05:58;;;;;;;1.27;0.50;;;;;;;;;;5122380;27;20058;-76
2022/05/18 08:08:29;;;;;;;7.30;1.00;;;;;;;;;;5123247;28;20055;-78
2022/05/18 08:16:36;;;;;;;4.82;0.82;;;;;;;;;;5109305;28;20043;-76
2022/05/18 08:19:10;;;;;;;3.60;0.93;;;;;;;;;;5108598;28;20054;-76
2022/05/18 08:21:40;;;;;;;4.10;0.80;;;;;;;;;;5109974;28;20064;-77
2022/05/18 08:24:11;;;;;;;7.63;1.65;;;;;;;;;;5109023;28;20058;-75
2022/05/18 08:26:43;;;;;;;4.38;0.70;;;;;;;;;;5109312;28;20058;-77
2022/05/18 08:29:14;;;;;;;2.65;0.60;;;;;;;;;;5109605;28;20047;-77
2022/05/18 08:31:50;;;;;;;6.40;0.70;;;;;;;;;;5108912;28;20036;-77
2022/05/18 08:34:20;;;;;;;2.10;0.73;;;;;;;;;;5108945;28;20056;-75
2022/05/18 08:36:50;;;;;;;3.42;0.80;;;;;;;;;;5109174;28;20055;-77
2022/05/18 08:39:20;;;;;;;1.58;0.60;;;;;;;;;;5107177;28;20055;-78
2022/05/18 08:41:51;;;;;;;6.75;0.80;;;;;;;;;;5109225;28;20044;-79
2022/05/18 08:44:35;;;;;;;2.80;0.40;;;;;;;;;;5108728;28;20047;-77
2022/05/18 08:47:11;;;;;;;2.08;0.57;;;;;;;;;;5109009;28;20055;-80
2022/05/18 08:49:56;;;;;;;1.77;0.85;;;;;;;;;;5106858;28;20510;-77
2022/05/18 08:52:34;;;;;;;5.03;0.73;;;;;;;;;;5108133;28;20056;-78
2022/05/18 08:55:15;;;;;;;0.93;0.50;;;;;;;;;;5108977;28;20048;-76
2022/05/18 08:57:49;;;;;;;2.00;0.60;;;;;;;;;;5109543;28;20046;-77
2022/05/18 09:00:34;;;;;;;1.70;0.80;;;;;;;;;;5109050;28;20052;-76
2022/05/18 09:03:12;;;;;;;3.03;0.70;;;;;;;;;;5108576;28;20051;-77
2022/05/18 09:05:52;;;;;;;3.40;1.00;;;;;;;;;;5107829;28;20040;-78
2022/05/18 09:08:37;;;;;;;2.45;0.60;;;;;;;;;;5108595;28;20048;-77
2022/05/18 09:11:13;;;;;;;3.10;0.70;;;;;;;;;;5108718;28;20043;-79
2022/05/18 09:13:43;;;;;;;1.33;0.43;;;;;;;;;;5108528;28;20053;-78
2022/05/18 09:16:40;;;;;;;1.05;0.50;;;;;;;;;;5107569;28;20048;-76
2022/05/18 09:19:19;;;;;;;2.67;0.47;;;;;;;;;;5108417;28;20048;-77
2022/05/18 09:21:52;;;;;;;5.45;0.70;;;;;;;;;;5108237;28;20048;-76
2022/05/18 09:24:28;;;;;;;2.63;0.73;;;;;;;;;;5108870;28;20055;-78
2022/05/18 09:27:20;;;;;;;3.45;0.90;;;;;;;;;;5108143;28;20051;-78
2022/05/18 09:30:41;;;;;;;3.00;0.50;;;;;;;;;;5108359;28;20047;-79
2022/05/18 09:33:29;;;;;;;1.65;0.35;;;;;;;;;;5065517;28;20529;-79
2022/05/18 09:36:26;;;;;;;5.53;0.60;;;;;;;;;;5108311;28;20055;-79
2022/05/18 09:39:10;;;;;;;1.60;0.70;;;;;;;;;;5107293;28;20044;-79
2022/05/18 09:42:07;;;;;;;5.93;0.68;;;;;;;;;;5107588;28;20221;-76
2022/05/18 09:44:44;;;;;;;4.72;0.77;;;;;;;;;;5107524;28;20047;-77
2022/05/18 09:47:18;;;;;;;1.80;0.63;;;;;;;;;;5107770;28;20051;-76
2022/05/18 09:49:53;;;;;;;2.88;0.95;;;;;;;;;;5107227;28;20517;-77
2022/05/18 09:52:28;;;;;;;3.50;0.88;;;;;;;;;;5107646;28;20075;-83
2022/05/18 09:55:00;;;;;;;6.40;0.73;;;;;;;;;;5108146;28;20043;-76
2022/05/18 09:57:34;;;;;;;4.53;0.73;;;;;;;;;;5108327;28;20043;-77
2022/05/18 10:00:15;;;;;;;4.07;0.70;;;;;;;;;;5107331;28;20035;-77
2022/05/18 10:08:35;;;;;;;3.78;0.57;;;;;;;;;;5107307;28;20055;-77
2022/05/18 10:11:09;;;;;;;1.27;0.70;;;;;;;;;;5107121;28;20515;-77
2022/05/18 10:14:03;;;;;;;2.80;1.00;;;;;;;;;;5106919;28;20079;-77
2022/05/18 10:17:05;;;;;;;3.88;0.70;;;;;;;;;;5096959;28;20051;-79
2022/05/18 10:19:58;;;;;;;2.08;0.70;;;;;;;;;;5107901;28;20052;-78
2022/05/18 10:22:31;;;;;;;1.67;0.98;;;;;;;;;;5107554;28;20506;-80
2022/05/18 10:25:32;;;;;;;0.85;0.60;;;;;;;;;;5106864;28;20160;-78
2022/05/18 10:28:29;;;;;;;4.47;0.67;;;;;;;;;;5107275;28;20054;-78
2022/05/18 10:31:04;;;;;;;2.35;0.85;;;;;;;;;;5104123;28;20502;-79
2022/05/18 10:33:42;;;;;;;1.10;0.52;;;;;;;;;;5106482;28;20406;-79
2022/05/18 10:36:24;;;;;;;3.95;0.73;;;;;;;;;;5106606;28;20054;-80
2022/05/18 10:39:00;;;;;;;3.63;1.10;;;;;;;;;;5104474;28;20532;-79
2022/05/18 10:41:45;;;;;;;2.67;1.00;;;;;;;;;;5106637;28;20051;-79
2022/05/18 10:44:21;;;;;;;4.72;0.85;;;;;;;;;;5105925;28;20537;-78
2022/05/18 10:46:53;;;;;;;3.92;0.77;;;;;;;;;;5106925;28;20051;-78
2022/05/18 10:49:36;;;;;;;;;;;;;;;;;;5107473;28;20086;-77
2022/05/18 10:52:12;;;;;;;1.20;0.77;;;;;;;;;;5103342;28;19923;-80
2022/05/18 10:54:57;;;;;;;2.67;0.90;;;;;;;;;;5105485;28;20048;-78
2022/05/18 10:57:35;;;;;;;2.63;0.90;;;;;;;;;;5105206;28;20058;-78
2022/05/18 11:00:12;;;;;;;3.22;0.82;;;;;;;;;;5107083;28;20055;-77
2022/05/18 11:02:51;;;;;;;4.70;1.15;;;;;;;;;;5107589;28;20043;-79
2022/05/18 11:05:33;;;;;;;2.95;0.75;;;;;;;;;;5107469;28;20058;-79
2022/05/18 11:08:06;;;;;;;3.60;0.90;;;;;;;;;;5105840;28;20052;-81
2022/05/18 11:11:04;;;;;;;1.88;0.70;;;;;;;;;;5105760;28;20421;-79
2022/05/18 11:13:51;;;;;;;0.85;0.75;;;;;;;;;;5106540;28;20059;-82
2022/05/18 11:16:36;;;;;;;3.60;0.90;;;;;;;;;;5107069;28;20050;-77
2022/05/18 11:19:40;;;;;;;3.67;0.95;;;;;;;;;;5106913;28;20040;-76
2022/05/18 11:22:33;;;;;;;3.33;0.88;;;;;;;;;;5106873;28;20043;-80
2022/05/18 11:25:30;;;;;;;2.67;0.90;;;;;;;;;;5106112;28;20044;-80
2022/05/18 11:28:37;;;;;;;4.78;1.05;;;;;;;;;;5108922;28;20525;-78
2022/05/18 11:31:41;;;;;;;1.02;0.68;;;;;;;;;;5107939;28;20055;-77
2022/05/18 11:34:37;;;;;;;2.20;0.73;;;;;;;;;;5108208;28;20051;-79
2022/05/18 11:37:07;;;;;;;4.00;1.10;;;;;;;;;;5108524;28;20099;-79
2022/05/18 11:40:10;;;;;;;5.63;1.80;;;;;;;;;;5126647;28;20032;-78
2022/05/18 11:43:25;;;;;;;3.25;1.63;;;;;;;;;;5131931;28;20046;-77
2022/05/18 11:46:18;;;;;;;1.35;1.20;;;;;;;;;;5132356;28;20040;-77
2022/05/18 11:49:21;;;;;;;3.40;1.30;;;;;;;;;;5132168;28;20042;-78
2022/05/18 11:52:09;;;;;;;6.72;1.55;;;;;;;;;;5075840;28;20075;-77
2022/05/18 11:55:17;;;;;;;5.78;1.70;;;;;;;;;;5111057;28;20059;-77
2022/05/18 11:58:13;;;;;;;4.47;2.10;;;;;;;;;;5028435;28;20045;-77
2022/05/18 12:01:04;;;;;;;3.08;1.95;;;;;;;;;;5031673;28;20538;-76
2022/05/18 12:03:43;;;;;;;4.85;2.10;;;;;;;;;;5106904;28;20506;-80
2022/05/18 12:06:23;;;;;;;3.38;2.03;;;;;;;;;;5109179;28;20039;-78
2022/05/18 12:09:10;;;;;;;2.67;1.25;;;;;;;;;;5109505;28;20510;-76
2022/05/18 12:12:04;;;;;;;2.17;1.38;;;;;;;;;;5109864;28;20039;-77
2022/05/18 12:15:15;;;;;;;3.17;1.38;;;;;;;;;;5109973;28;20066;-75
2022/05/18 12:18:00;;;;;;;4.53;1.52;;;;;;;;;;5109898;28;20065;-76
2022/05/18 12:21:15;;;;;;;3.95;0.88;;;;;;;;;;5108781;28;20040;-77
2022/05/18 12:23:50;;;;;;;5.10;0.88;;;;;;;;;;5106692;28;20433;-76
2022/05/18 12:26:21;;;;;;;3.08;1.02;;;;;;;;;;5109489;28;20047;-78
2022/05/18 12:28:51;;;;;;;;;;;;;;;;;;5109600;28;20040;-77
2022/05/18 12:31:22;;;;;;;10.50;1.05;;;;;;;;;;5108535;28;19924;-77
2022/05/18 12:34:01;;;;;;;2.70;1.13;;;;;;;;;;5109069;28;20044;-75
2022/05/18 12:36:36;;;;;;;2.20;1.30;;;;;;;;;;5107344;28;20043;-76
2022/05/18 12:39:17;;;;;;;1.58;1.10;;;;;;;;;;5108635;28;20051;-77
2022/05/18 12:41:54;;;;;;;2.80;1.75;;;;;;;;;;5109106;28;20044;-77
2022/05/18 12:44:37;;;;;;;2.25;1.13;;;;;;;;;;5109173;28;20032;-78
2022/05/18 12:47:22;;;;;;;6.00;2.00;;;;;;;;;;5108349;28;20505;-79
2022/05/18 12:50:08;;;;;;;4.25;1.40;;;;;;;;;;5108589;28;20044;-79
2022/05/18 12:52:58;;;;;;;5.72;1.67;;;;;;;;;;5109568;28;20394;-76
2022/05/18 12:55:42;;;;;;;3.10;1.80;;;;;;;;;;5108457;28;20054;-78
2022/05/18 12:58:12;;;;;;;6.80;1.55;;;;;;;;;;5108231;28;20051;-77
2022/05/18 13:01:18;;;;;;;3.15;1.40;;;;;;;;;;5108474;28;20044;-76
2022/05/18 13:03:57;;;;;;;5.82;1.52;;;;;;;;;;5096859;27;20059;-77
2022/05/18 13:06:36;;;;;;;4.35;1.52;;;;;;;;;;5108365;28;20062;-77
2022/05/18 13:09:27;;;;;;;6.40;1.70;;;;;;;;;;5107359;28;20044;-77
2022/05/18 13:12:18;;;;;;;6.13;1.38;;;;;;;;;;5107302;28;20070;-76
2022/05/18 13:15:11;;;;;;;3.22;1.30;;;;;;;;;;5108288;28;20058;-78
2022/05/18 13:17:54;;;;;;;2.80;1.08;;;;;;;;;;5108334;28;20050;-77
2022/05/18 13:20:29;;;;;;;2.72;1.40;;;;;;;;;;5108455;28;20676;-75
2022/05/18 13:23:20;;;;;;;4.57;1.08;;;;;;;;;;5089336;28;20063;-76
2022/05/18 13:25:58;;;;;;;4.45;1.48;;;;;;;;;;5108593;28;20044;-80
2022/05/18 13:28:34;;;;;;;2.47;1.50;;;;;;;;;;5108102;28;20506;-76
2022/05/18 13:31:06;;;;;;;3.55;1.42;;;;;;;;;;5107654;28;20052;-79
2022/05/18 13:33:54;;;;;;;4.65;1.80;;;;;;;;;;5108164;28;20390;-79
2022/05/18 13:36:50;;;;;;;7.28;1.88;;;;;;;;;;5108173;28;20039;-76
2022/05/18 13:39:33;;;;;;;5.68;1.60;;;;;;;;;;5108119;28;20058;-78
2022/05/18 13:42:14;;;;;;;4.32;1.25;;;;;;;;;;5107144;28;20044;-76
2022/05/18 13:44:46;;;;;;;3.20;1.23;;;;;;;;;;5107209;28;20048;-78
2022/05/18 13:47:41;;;;;;;3.25;1.20;;;;;;;;;;5107700;28;20039;-77
2022/05/18 13:50:39;;;;;;;7.22;1.80;;;;;;;;;;5106505;28;20410;-78
2022/05/18 13:53:27;;;;;;;3.97;1.42;;;;;;;;;;5108002;28;20051;-78
2022/05/18 13:56:18;;;;;;;5.68;1.83;;;;;;;;;;5107152;28;20050;-78
2022/05/18 13:58:52;;;;;;;6.87;1.90;;;;;;;;;;5107448;28;20048;-77
2022/05/18 14:01:37;;;;;;;4.70;1.75;;;;;;;;;;5107487;28;20286;-78
2022/05/18 14:04:16;;;;;;;3.65;1.77;;;;;;;;;;5107109;28;20047;-75
2022/05/18 14:06:53;;;;;;;6.00;1.90;;;;;;;;;;5107278;28;20490;-77
2022/05/18 14:09:23;;;;;;;3.35;1.38;;;;;;;;;;5105279;28;20052;-77
2022/05/18 14:11:58;;;;;;;6.90;1.45;;;;;;;;;;5107464;28;20506;-78
2022/05/18 14:14:31;;;;;;;6.10;2.42;;;;;;;;;;5105409;28;20047;-76
2022/05/18 14:17:08;;;;;;;8.38;2.05;;;;;;;;;;5106938;28;20056;-78
2022/05/18 14:20:24;;;;;;;9.15;1.88;;;;;;;;;;5107378;28;20047;-77
2022/05/18 14:23:29;;;;;;;4.35;1.88;;;;;;;;;;5106675;28;20058;-77
2022/05/18 14:26:02;;;;;;;6.70;1.20;;;;;;;;;;5107323;28;20051;-77
2022/05/18 14:28:41;;;;;;;2.72;0.95;;;;;;;;;;5107220;28;20040;-79
2022/05/18 14:31:18;;;;;;;2.17;0.93;;;;;;;;;;5106862;28;20054;-76
2022/05/18 14:33:53;;;;;;;1.48;0.93;;;;;;;;;;5107475;28;20051;-79
2022/05/18 14:36:49;;;;;;;6.57;1.75;;;;;;;;;;5105765;28;20058;-77
2022/05/18 14:39:39;;;;;;;6.43;1.38;;;;;;;;;;5107552;28;20058;-77
2022/05/18 14:42:13;;;;;;;3.35;1.20;;;;;;;;;;5117577;28;20059;-76
2022/05/18 14:44:47;;;;;;;3.20;1.55;;;;;;;;;;5123277;28;20054;-76
2022/05/18 14:47:42;;;;;;;6.68;1.88;;;;;;;;;;5106440;28;20044;-76
2022/05/18 14:50:19;;;;;;;2.63;1.15;;;;;;;;;;5107178;28;20379;-77
2022/05/18 14:53:04;;;;;;;5.82;1.58;;;;;;;;;;5106745;28;20051;-80
2022/05/18 14:55:59;;;;;;;4.13;1.40;;;;;;;;;;5107711;28;20393;-76
2022/05/18 14:58:37;;;;;;;6.35;1.60;;;;;;;;;;5104981;28;20048;-76
2022/05/18 15:01:35;;;;;;;6.20;1.55;;;;;;;;;;5107449;28;20051;-77
2022/05/18 15:04:17;;;;;;;3.78;1.42;;;;;;;;;;5105473;28;20073;-78
2022/05/18 15:06:50;;;;;;;1.15;0.88;;;;;;;;;;5104663;28;20051;-76
2022/05/18 15:09:38;;;;;;;2.05;0.88;;;;;;;;;;5104977;28;20048;-77
2022/05/18 15:12:17;;;;;;;6.55;1.38;;;;;;;;;;5106037;28;20703;-78
2022/05/18 15:15:17;;;;;;;9.48;1.10;;;;;;;;;;5104848;28;20060;-78
2022/05/18 15:17:58;;;;;;;5.97;1.52;;;;;;;;;;5106199;28;20056;-78
2022/05/18 15:20:42;;;;;;;3.42;1.20;;;;;;;;;;5106992;28;20046;-78
2022/05/18 15:23:39;;;;;;;5.53;1.23;;;;;;;;;;5105812;28;20043;-78
2022/05/18 15:26:39;;;;;;;3.13;1.05;;;;;;;;;;5110413;28;20051;-79
2022/05/18 15:29:34;;;;;;;4.07;1.17;;;;;;;;;;5108815;28;20520;-78
2022/05/18 15:32:30;;;;;;;2.72;1.27;;;;;;;;;;5110359;28;20051;-84
2022/05/18 15:35:06;;;;;;;4.13;1.27;;;;;;;;;;5109983;28;20046;-77
2022/05/18 15:37:45;;;;;;;3.35;1.00;;;;;;;;;;5109614;28;20051;-78
2022/05/18 15:40:16;;;;;;;1.17;0.77;;;;;;;;;;5110923;28;20051;-77
2022/05/18 15:42:46;;;;;;;4.63;1.20;;;;;;;;;;5110820;28;20047;-77
2022/05/18 15:45:16;;;;;;;8.32;1.42;;;;;;;;;;5110456;28;20486;-81
2022/05/18 15:48:00;;;;;;;2.70;0.98;;;;;;;;;;5109920;28;20483;-77
2022/05/18 15:50:34;;;;;;;4.38;1.38;;;;;;;;;;5110362;28;20040;-76
2022/05/18 15:53:06;;;;;;;3.30;1.02;;;;;;;;;;5108654;28;20071;-78
2022/05/18 15:55:36;;;;;;;3.35;1.10;;;;;;;;;;5110261;28;20046;-77
2022/05/18 15:58:06;;;;;;;6.32;1.17;;;;;;;;;;5109824;28;20050;-77
2022/05/18 16:00:37;;;;;;;4.13;1.30;;;;;;;;;;5110154;28;20050;-77
2022/05/18 16:03:08;;;;;;;4.57;2.05;;;;;;;;;;5109190;28;20051;-79
2022/05/18 16:05:38;;;;;;;;;;;;;;;;;;5110047;28;20059;-81
2022/05/18 16:08:10;;;;;;;2.25;0.88;;;;;;;;;;5108163;28;20302;-78
2022/05/18 16:10:40;;;;;;;6.38;1.20;;;;;;;;;;5110060;28;20043;-80
2022/05/18 16:13:10;;;;;;;1.67;1.00;;;;;;;;;;5109823;28;20373;-76
2022/05/18 16:15:40;;;;;;;1.80;0.93;;;;;;;;;;5109623;28;20039;-76
2022/05/18 16:18:10;;;;;;;6.82;1.73;;;;;;;;;;5109847;28;20044;-77
2022/05/18 16:20:40;;;;;;;6.55;1.50;;;;;;;;;;5107498;28;20044;-76
2022/05/18 16:23:18;;;;;;;9.00;1.80;;;;;;;;;;5109251;28;20493;-77
2022/05/18 16:25:49;;;;;;;7.15;2.30;;;;;;;;;;5109617;28;20040;-77